cloudbaseCU.php : Version 1.5 - copyright 2013 Silver Acorn Limited
Date/Time : Mon, 25 Oct 2021 01:16:59 (Night)
Time Zone : Europe/London (GMT+1 hours)
INPUT ITEM: RAW DATA -> DERIVED
    Current temp : 9.8 -> 9.8 °C
    Dewpoint : 7.8 -> 7.8 °C
    Rain Fall : 0.0 -> 0.0 mm
    Barometer : 1006.1 -> 1006 hPa
    Humidity : 87 -> 87 %
    Wind Speed : 5 -> 5 mph
    Wind Dir : 225 -> 225 degrees
    Cloud Altitude : 818 -> 800 ft (AGL)
    Latitude : 55 -> N = Northern Hemisphere
    Season : -> Autumn
    Moon Age : 19 -> 19 days
    Is daylight : 0 -> Night
    Realtime file Interval : 10 -> 10 Seconds
    Tag file time Interval : 5 -> 5 Minutes
CUMULUS CONDITIONS
    Cumulus conditions not in use
    Zambretti # : 9 -> 9
METAR CONDITONS - Metar Times UNC, Update Station times based on timezone setting
    $pathToMetFile : ./cache/
    Metar - Rawdata : 2021/10/24 23:50 EGAC 242350Z AUTO 22009KT 9999 FEW020/// 10/08 Q1006
    Metar - Trimmed : 242350Z AUTO 22009KT 9999 FEW020 10/08 Q1006
    Metar - Decoded : Not Raining; Partly Cloudy
    Now : 1635121018 seconds or Station Time of 01:16:59
    Metar report timestamp : 1635119400 seconds
    Age of File : 26.97 minutes
    When to update Metar : seconds (When station time ~ 01:00:00)
        (Metar report timestamp plus 39 mins refresh time)
    Next Download in : -27252016.97 Minutes (if  '-' then refresh page, if still '-' then download overdue!)
    Metar file : New File downloaded
    Note:- Metar updates are usually Hourly unless AUTO when they may update every 30 minutes
OUTPUT DATA

    $showAGLASL : true
Cloud Temp : 5 °C
Background image file name : ./images/cb/cb-bg-00autn.png
    $useWXrain : true
    $tagint : 5
    Last rain : 408 minutes ago
    $wxrain : false
"useWXrain" results :-
    No rain in last 5 minutes -> Not raining
SETTINGS
    $realtime : cloudbaseCU.txt
    $metarICAO : EGAC
    $pathToMetFile : ./cache/
    $tz : Europe/London - The setting in this script, may be overidden by the Saratoga SITE setting
    $pathToImages : ./images/cb/
    $pathToMoonImages : ./images/cb/moon/
    $translate : true
    $switchSeasons : true
    $showCldSource : true
    $showCloudTemp : true
    $showCaption : true
    $showMoon : true
    $showScale : true
    $showWinsock : false
    $showWindDir : false
    $showWindSpd : false
    $showTemp : false
    $showHumidity : false
    $showBaro : false
    $alwaysShowCloud : false
    $useCUHeight : false
    $getMetar : true
    $metarRefresh : true
    $useMetarAtNight : true
    $onlyUseMetar : true
    $reportMistAt : 25 ft
    $stationAltitude : 0 ft